createdAt,value
2022-09-05T00:00:15.336Z,2.17
2022-09-05T00:02:55.188Z,2.33
2022-09-05T00:06:00.076Z,2.00
2022-09-05T00:08:40.642Z,2.70
2022-09-05T00:11:41.347Z,2.27
2022-09-05T00:14:36.715Z,2.30
2022-09-05T00:17:39.404Z,2.13
2022-09-05T00:24:25.655Z,2.00
2022-09-05T00:24:31.896Z,2.17
2022-09-05T00:26:19.824Z,2.13
2022-09-05T00:28:56.038Z,2.77
2022-09-05T00:31:56.201Z,2.17
2022-09-05T00:34:47.901Z,2.50
2022-09-05T00:37:28.984Z,2.27
2022-09-05T00:40:17.871Z,2.07
2022-09-05T00:42:49.547Z,2.40
2022-09-05T00:45:27.765Z,2.20
2022-09-05T00:48:03.096Z,2.30
2022-09-05T00:50:38.341Z,2.13
2022-09-05T00:53:12.442Z,2.47
2022-09-05T00:55:47.731Z,2.23
2022-09-05T00:58:34.027Z,2.03
2022-09-05T01:01:16.347Z,2.27
2022-09-05T01:04:06.219Z,2.27
2022-09-05T01:06:44.866Z,2.30
2022-09-05T01:09:27.321Z,2.17
2022-09-05T01:12:10.493Z,1.90
2022-09-05T01:14:54.953Z,2.07
2022-09-05T01:17:33.865Z,2.30
2022-09-05T01:20:19.510Z,2.20
2022-09-05T01:23:30.873Z,2.30
2022-09-05T01:26:24.552Z,2.10
2022-09-05T01:29:15.298Z,2.10
2022-09-05T01:32:15.485Z,2.30
2022-09-05T01:34:57.389Z,2.40
2022-09-05T01:37:33.342Z,2.33
2022-09-05T01:40:16.493Z,2.30
2022-09-05T01:42:59.309Z,2.43
2022-09-05T01:45:41.041Z,2.20
2022-09-05T01:48:14.664Z,2.37
2022-09-05T01:50:52.530Z,2.50
2022-09-05T01:53:32.607Z,2.30
2022-09-05T01:56:28.152Z,2.30
2022-09-05T01:59:12.084Z,2.30
2022-09-05T02:01:55.923Z,2.13
2022-09-05T02:04:56.312Z,2.60
2022-09-05T02:07:34.593Z,2.53
2022-09-05T02:10:27.349Z,2.53
2022-09-05T02:13:03.514Z,2.23
2022-09-05T02:15:43.042Z,2.27
2022-09-05T02:18:32.082Z,2.50
2022-09-05T02:21:02.370Z,2.07
2022-09-05T02:23:42.508Z,2.47
2022-09-05T02:26:17.580Z,2.37
2022-09-05T02:28:53.648Z,2.07
2022-09-05T02:31:28.337Z,2.57
2022-09-05T02:34:02.416Z,2.30
2022-09-05T02:36:39.502Z,2.30
2022-09-05T02:45:06.290Z,2.00
2022-09-05T02:45:06.636Z,2.53
2022-09-05T02:45:25.691Z,2.47
2022-09-05T02:48:04.181Z,2.20
2022-09-05T02:56:45.606Z,2.30
2022-09-05T02:57:45.998Z,2.00
2022-09-05T02:57:46.249Z,2.30
2022-09-05T02:59:49.591Z,2.27
2022-09-05T03:02:27.203Z,2.40
2022-09-05T03:05:05.100Z,2.30
2022-09-05T03:08:02.423Z,2.50
2022-09-05T03:10:55.178Z,2.30
2022-09-05T03:14:05.369Z,2.53
2022-09-05T03:17:15.016Z,2.67
2022-09-05T03:20:16.199Z,2.43
2022-09-05T03:23:22.667Z,2.30
2022-09-05T03:26:28.477Z,2.20
2022-09-05T03:29:30.839Z,2.53
2022-09-05T03:32:40.298Z,2.50
2022-09-05T03:35:43.353Z,2.50
2022-09-05T03:38:48.695Z,2.33
2022-09-05T03:41:40.541Z,3.10
2022-09-05T03:44:24.393Z,2.70
2022-09-05T03:47:14.135Z,2.67
2022-09-05T03:54:17.091Z,2.60
2022-09-05T03:57:14.132Z,2.93
2022-09-05T03:57:14.441Z,2.60
2022-09-05T03:59:30.913Z,3.00
2022-09-05T04:06:11.637Z,2.87
2022-09-05T04:08:15.213Z,2.63
2022-09-05T04:08:18.448Z,2.90
2022-09-05T04:10:41.657Z,2.80
2022-09-05T04:13:19.223Z,2.83
2022-09-05T04:15:53.459Z,2.40
2022-09-05T04:18:33.085Z,2.70
2022-09-05T04:21:07.877Z,3.07
2022-09-05T04:23:45.977Z,2.73
2022-09-05T04:26:28.173Z,2.73
2022-09-05T04:29:04.339Z,3.00
2022-09-05T04:31:44.521Z,3.00
2022-09-05T04:34:35.391Z,2.60
2022-09-05T04:37:05.428Z,2.90
2022-09-05T04:39:34.723Z,3.03
2022-09-05T04:42:24.637Z,2.80
2022-09-05T04:44:59.378Z,2.57
2022-09-05T04:47:31.464Z,3.00
2022-09-05T04:50:05.721Z,3.20
2022-09-05T04:52:56.979Z,3.07
2022-09-05T04:55:28.095Z,3.00
2022-09-05T04:58:01.714Z,3.53
2022-09-05T05:06:02.648Z,3.30
2022-09-05T05:06:18.515Z,3.00
2022-09-05T05:06:43.963Z,2.93
2022-09-05T05:09:18.861Z,3.00
2022-09-05T05:17:35.345Z,3.30
2022-09-05T05:18:06.721Z,3.33
2022-09-05T05:18:16.111Z,2.70
2022-09-05T05:20:40.153Z,3.40
2022-09-05T05:23:14.625Z,3.20
2022-09-05T05:25:48.798Z,3.07
2022-09-05T05:28:26.962Z,3.47
2022-09-05T05:31:01.228Z,3.60
2022-09-05T05:33:34.699Z,3.40
2022-09-05T05:36:04.768Z,3.93
2022-09-05T05:38:44.251Z,3.67
2022-09-05T05:41:20.590Z,3.60
2022-09-05T05:43:50.907Z,3.33
2022-09-05T05:46:29.644Z,4.40
2022-09-05T05:49:12.597Z,3.70
2022-09-05T05:52:01.111Z,4.23
2022-09-05T05:54:36.665Z,4.47
2022-09-05T05:57:28.390Z,3.30
2022-09-05T06:00:06.961Z,3.90
2022-09-05T06:03:26.978Z,3.80
2022-09-05T06:06:15.980Z,3.40
2022-09-05T06:14:31.250Z,3.27
2022-09-05T06:15:05.524Z,3.50
2022-09-05T06:15:41.063Z,3.70
2022-09-05T06:18:43.836Z,4.10
2022-09-05T06:22:10.315Z,4.00
2022-09-05T06:25:19.669Z,3.90
2022-09-05T06:28:19.455Z,3.83
2022-09-05T06:30:57.203Z,3.90
2022-09-05T06:33:53.762Z,4.10
2022-09-05T06:36:43.862Z,3.60
2022-09-05T06:42:30.607Z,3.83
2022-09-05T06:45:41.509Z,4.13
2022-09-05T06:48:23.934Z,3.63
2022-09-05T06:51:32.974Z,3.47
2022-09-05T06:54:28.614Z,4.40
2022-09-05T06:57:14.316Z,3.80
2022-09-05T07:00:21.663Z,4.10
2022-09-05T07:03:15.218Z,3.80
2022-09-05T07:05:55.801Z,4.07
2022-09-05T07:08:35.713Z,4.20
2022-09-05T07:11:16.767Z,3.40
2022-09-05T07:13:56.110Z,4.07
2022-09-05T07:16:37.264Z,3.73
2022-09-05T07:19:26.650Z,3.50
2022-09-05T07:22:46.400Z,3.73
2022-09-05T07:25:10.385Z,4.00
2022-09-05T07:28:26.697Z,4.00
2022-09-05T07:30:34.847Z,4.37
2022-09-05T07:33:04.730Z,3.90
2022-09-05T07:35:41.736Z,4.40
2022-09-05T07:38:16.046Z,4.40
2022-09-05T07:40:52.381Z,4.37
2022-09-05T07:43:26.335Z,3.77
2022-09-05T07:46:11.701Z,3.60
2022-09-05T07:48:43.084Z,4.10
2022-09-05T07:56:46.406Z,3.87
2022-09-05T07:57:14.610Z,5.03
2022-09-05T08:00:05.582Z,4.03
2022-09-05T08:02:33.434Z,3.67
2022-09-05T08:05:04.569Z,3.70
2022-09-05T08:07:49.412Z,5.00
2022-09-05T08:10:30.912Z,4.33
2022-09-05T08:13:34.112Z,4.57
2022-09-05T08:16:13.409Z,3.97
2022-09-05T08:18:45.788Z,4.23
2022-09-05T08:21:27.797Z,3.70
2022-09-05T08:24:13.218Z,4.30
2022-09-05T08:26:47.268Z,4.50
2022-09-05T08:29:31.949Z,4.63
2022-09-05T08:32:08.428Z,4.27
2022-09-05T08:34:45.440Z,4.13
2022-09-05T08:37:21.176Z,3.90
2022-09-05T08:39:59.063Z,4.57
2022-09-05T08:43:28.129Z,4.43
2022-09-05T08:46:47.329Z,4.30
2022-09-05T08:48:46.094Z,4.57
2022-09-05T08:51:29.345Z,4.47
2022-09-05T08:54:19.987Z,4.33
2022-09-05T08:56:54.985Z,4.20
2022-09-05T08:59:32.974Z,4.77
2022-09-05T09:02:46.905Z,4.43
2022-09-05T09:05:51.916Z,4.00
2022-09-05T09:08:28.817Z,4.70
2022-09-05T09:11:05.038Z,4.60
2022-09-05T09:13:42.225Z,4.53
2022-09-05T09:16:20.459Z,4.10
2022-09-05T09:19:06.219Z,4.82
2022-09-05T09:21:42.553Z,3.88
2022-09-05T09:24:25.426Z,4.20
2022-09-05T09:26:58.267Z,4.22
2022-09-05T09:29:27.754Z,4.70
2022-09-05T09:32:05.204Z,4.35
2022-09-05T09:34:53.317Z,4.53
2022-09-05T09:38:07.939Z,5.00
2022-09-05T09:41:20.834Z,4.50
2022-09-05T09:44:35.854Z,4.63
2022-09-05T09:47:13.725Z,4.30
2022-09-05T09:49:58.185Z,4.70
2022-09-05T09:52:56.285Z,4.03
2022-09-05T09:56:06.753Z,3.80
2022-09-05T09:58:55.268Z,3.72
2022-09-05T10:01:37.308Z,4.10
2022-09-05T10:10:35.975Z,4.80
2022-09-05T10:10:54.222Z,4.13
2022-09-05T10:11:37.541Z,3.60
2022-09-05T10:14:33.855Z,4.10
2022-09-05T10:17:22.009Z,4.18
2022-09-05T10:20:28.703Z,4.47
2022-09-05T10:23:23.492Z,3.78
2022-09-05T10:26:21.048Z,4.30
2022-09-05T10:29:30.161Z,4.25
2022-09-05T10:34:52.144Z,4.00
2022-09-05T10:35:10.387Z,4.22
2022-09-05T10:37:42.273Z,4.38
2022-09-05T10:40:13.682Z,3.90
2022-09-05T10:42:56.930Z,4.30
2022-09-05T10:45:39.076Z,4.40
2022-09-05T10:48:13.741Z,4.10
2022-09-05T10:50:44.943Z,3.95
2022-09-05T10:53:39.124Z,3.90
2022-09-05T10:56:13.787Z,3.80
2022-09-05T11:00:28.188Z,3.90
2022-09-05T11:02:26.176Z,3.90
2022-09-05T11:04:50.120Z,4.22
2022-09-05T11:07:27.938Z,4.13
2022-09-05T11:10:14.156Z,4.55
2022-09-05T11:12:58.275Z,3.70
2022-09-05T11:15:33.890Z,4.63
2022-09-05T11:18:08.304Z,4.65
2022-09-05T11:20:48.274Z,4.15
2022-09-05T11:23:21.524Z,4.30
2022-09-05T11:26:00.713Z,4.22
2022-09-05T11:28:57.479Z,4.55
2022-09-05T11:31:45.770Z,4.40
2022-09-05T11:39:53.445Z,4.13
2022-09-05T11:40:10.856Z,4.22
2022-09-05T11:41:40.904Z,4.20
2022-09-05T11:44:27.528Z,3.83
2022-09-05T11:47:44.789Z,4.03
2022-09-05T11:50:46.438Z,4.65
2022-09-05T11:53:46.956Z,4.32
2022-09-05T11:56:45.592Z,3.72
2022-09-05T11:59:34.205Z,4.10
2022-09-05T12:02:26.303Z,4.47
2022-09-05T12:05:47.696Z,4.38
2022-09-05T12:08:06.330Z,3.88
2022-09-05T12:10:49.191Z,4.10
2022-09-05T12:13:32.204Z,4.03
2022-09-05T12:16:08.653Z,4.40
2022-09-05T12:18:45.744Z,3.83
2022-09-05T12:21:27.015Z,3.97
2022-09-05T12:25:18.685Z,3.40
2022-09-05T12:27:39.894Z,3.72
2022-09-05T12:29:54.222Z,3.75
2022-09-05T12:33:52.370Z,3.72
2022-09-05T12:36:09.769Z,3.95
2022-09-05T12:40:05.087Z,3.80
2022-09-05T12:41:42.900Z,3.70
2022-09-05T12:44:42.286Z,4.13
2022-09-05T12:47:16.747Z,3.53
2022-09-05T12:50:02.906Z,3.15
2022-09-05T12:52:42.469Z,3.45
2022-09-05T12:55:16.568Z,3.50
2022-09-05T13:00:54.093Z,3.15
2022-09-05T13:03:13.003Z,3.38
2022-09-05T13:03:34.912Z,3.97
2022-09-05T13:06:08.675Z,3.55
2022-09-05T13:08:54.194Z,3.60
2022-09-05T13:14:48.156Z,3.15
2022-09-05T13:14:55.294Z,3.50
2022-09-05T13:17:14.067Z,3.38
2022-09-05T13:19:51.331Z,3.08
2022-09-05T13:22:22.249Z,2.90
2022-09-05T13:24:59.765Z,3.55
2022-09-05T13:27:31.783Z,2.95
2022-09-05T13:31:36.205Z,2.67
2022-09-05T13:37:59.805Z,2.88
2022-09-05T13:37:59.938Z,3.70
2022-09-05T13:39:01.187Z,3.08
2022-09-05T13:41:31.583Z,2.85
2022-09-05T13:44:24.842Z,3.00
2022-09-05T13:46:58.492Z,3.10
2022-09-05T13:49:32.199Z,2.90
2022-09-05T13:52:14.655Z,3.22
2022-09-05T13:54:51.006Z,2.92
2022-09-05T13:57:32.606Z,3.70
2022-09-05T14:00:29.685Z,3.22
2022-09-05T14:03:51.203Z,3.42
2022-09-05T14:06:48.779Z,3.35
2022-09-05T14:09:49.411Z,2.75
2022-09-05T14:12:29.978Z,3.35
2022-09-05T14:15:10.059Z,3.25
2022-09-05T14:17:56.659Z,3.60
2022-09-05T14:20:50.209Z,3.65
2022-09-05T14:23:19.612Z,3.47
2022-09-05T14:25:52.762Z,3.28
2022-09-05T14:28:26.798Z,3.50
2022-09-05T14:32:14.446Z,3.40
2022-09-05T14:37:41.494Z,3.20
2022-09-05T14:38:01.610Z,3.00
2022-09-05T14:40:30.061Z,3.95
2022-09-05T14:43:15.111Z,3.42
2022-09-05T14:46:08.517Z,3.20
2022-09-05T14:48:55.850Z,3.30
2022-09-05T14:51:31.439Z,3.55
2022-09-05T14:54:02.840Z,3.10
2022-09-05T14:57:27.290Z,3.33
2022-09-05T15:02:51.313Z,3.40
2022-09-05T15:02:51.405Z,3.15
2022-09-05T15:05:21.240Z,3.13
2022-09-05T15:07:55.238Z,3.60
2022-09-05T15:12:20.728Z,3.35
2022-09-05T15:13:25.888Z,3.08
2022-09-05T15:16:02.430Z,3.55
2022-09-05T15:18:33.644Z,3.40
2022-09-05T15:21:33.396Z,3.58
2022-09-05T15:24:07.889Z,3.47
2022-09-05T15:26:52.679Z,3.60
2022-09-05T15:29:23.751Z,3.40
2022-09-05T15:31:59.521Z,3.40
2022-09-05T15:34:39.211Z,3.70
2022-09-05T15:37:23.709Z,3.42
2022-09-05T15:40:02.554Z,3.90
2022-09-05T15:42:34.131Z,3.20
2022-09-05T15:45:10.270Z,3.38
2022-09-05T15:47:44.266Z,3.35
2022-09-05T15:50:22.238Z,3.85
2022-09-05T15:52:55.582Z,3.95
2022-09-05T15:55:26.188Z,3.30
2022-09-05T15:57:59.776Z,3.83
2022-09-05T16:00:51.205Z,3.33
2022-09-05T16:06:28.682Z,3.42
2022-09-05T16:10:35.642Z,3.40
2022-09-05T16:10:37.062Z,3.50
2022-09-05T16:12:17.687Z,3.83
2022-09-05T16:15:19.889Z,3.30
2022-09-05T16:23:12.767Z,3.05
2022-09-05T16:23:36.035Z,3.85
2022-09-05T16:23:45.137Z,3.35
2022-09-05T16:26:24.779Z,4.20
2022-09-05T16:28:58.060Z,3.15
2022-09-05T16:31:34.146Z,3.70
2022-09-05T16:34:10.417Z,3.60
2022-09-05T16:36:57.902Z,3.60
2022-09-05T16:39:39.953Z,2.97
2022-09-05T16:42:16.122Z,3.53
2022-09-05T16:44:50.308Z,3.92
2022-09-05T16:47:25.523Z,3.65
2022-09-05T16:50:01.803Z,3.60
2022-09-05T16:52:56.062Z,3.17
2022-09-05T16:55:30.560Z,3.50
2022-09-05T16:58:06.522Z,3.40
2022-09-05T17:01:02.884Z,3.17
2022-09-05T17:03:42.686Z,3.40
2022-09-05T17:06:26.278Z,3.83
2022-09-05T17:09:00.827Z,3.22
2022-09-05T17:11:59.824Z,3.33
2022-09-05T17:14:35.066Z,3.35
2022-09-05T17:17:20.383Z,3.28
2022-09-05T17:19:55.140Z,3.75
2022-09-05T17:25:42.953Z,3.22
2022-09-05T17:29:33.947Z,3.00
2022-09-05T17:29:49.642Z,3.45
2022-09-05T17:31:57.270Z,3.53
2022-09-05T17:34:50.831Z,3.50
2022-09-05T17:38:11.264Z,3.10
2022-09-05T17:41:18.146Z,3.33
2022-09-05T17:43:51.718Z,3.40
2022-09-05T17:46:23.214Z,3.40
2022-09-05T17:49:18.421Z,3.72
2022-09-05T17:52:27.471Z,3.70
2022-09-05T17:54:56.746Z,3.45
2022-09-05T17:57:40.027Z,3.70
2022-09-05T18:00:45.667Z,3.88
2022-09-05T18:04:16.267Z,3.50
2022-09-05T18:07:00.514Z,3.20
2022-09-05T18:09:58.890Z,3.20
2022-09-05T18:13:12.528Z,3.53
2022-09-05T18:16:02.350Z,3.42
2022-09-05T18:19:28.517Z,3.35
2022-09-05T18:21:25.877Z,3.65
2022-09-05T18:24:04.459Z,3.58
2022-09-05T18:26:40.699Z,4.00
2022-09-05T18:29:17.525Z,3.72
2022-09-05T18:32:01.725Z,3.30
2022-09-05T18:34:47.994Z,3.70
2022-09-05T18:37:49.160Z,4.18
2022-09-05T18:40:36.841Z,3.47
2022-09-05T18:43:10.819Z,3.60
2022-09-05T18:45:39.748Z,3.85
2022-09-05T18:48:29.776Z,3.58
2022-09-05T18:51:15.520Z,3.90
2022-09-05T18:53:47.412Z,3.60
2022-09-05T18:56:23.306Z,3.70
2022-09-05T18:59:09.430Z,4.00
2022-09-05T19:01:41.939Z,3.53
2022-09-05T19:04:40.650Z,4.15
2022-09-05T19:07:09.747Z,4.03
2022-09-05T19:09:39.921Z,3.90
2022-09-05T19:12:33.542Z,4.18
2022-09-05T19:15:06.911Z,4.28
2022-09-05T19:17:39.351Z,3.78
2022-09-05T19:20:32.958Z,4.75
2022-09-05T19:23:10.595Z,4.50
2022-09-05T19:25:42.392Z,4.50
2022-09-05T19:36:43.923Z,3.85
2022-09-05T19:36:52.937Z,4.07
2022-09-05T19:37:05.922Z,4.47
2022-09-05T19:37:25.452Z,3.55
2022-09-05T19:45:00.645Z,4.27
2022-09-05T19:47:27.006Z,4.15
2022-09-05T19:47:38.732Z,4.30
2022-09-05T19:51:17.397Z,3.75
2022-09-05T19:53:47.530Z,4.57
2022-09-05T19:56:18.111Z,4.32
2022-09-05T19:58:46.004Z,4.70
2022-09-05T20:01:16.202Z,4.20
2022-09-05T20:03:46.177Z,3.92
2022-09-05T20:06:30.323Z,4.53
2022-09-05T20:09:09.677Z,3.83
2022-09-05T20:11:45.938Z,4.45
2022-09-05T20:14:23.969Z,4.07
2022-09-05T20:16:55.835Z,4.00
2022-09-05T20:19:30.942Z,4.15
2022-09-05T20:22:11.485Z,3.97
2022-09-05T20:24:50.531Z,4.03
2022-09-05T20:27:27.220Z,4.30
2022-09-05T20:29:58.631Z,4.37
2022-09-05T20:32:38.644Z,4.17
2022-09-05T20:37:24.076Z,3.90
2022-09-05T20:43:16.677Z,4.10
2022-09-05T20:43:24.002Z,4.23
2022-09-05T20:43:57.664Z,3.90
2022-09-05T20:51:01.969Z,4.20
2022-09-05T20:54:15.415Z,4.07
2022-09-05T20:54:22.586Z,3.83
2022-09-05T20:55:37.726Z,4.13
2022-09-05T20:57:50.784Z,4.20
2022-09-05T21:00:23.192Z,4.73
2022-09-05T21:02:54.615Z,4.33
2022-09-05T21:05:29.814Z,4.20
2022-09-05T21:08:23.904Z,4.13
2022-09-05T21:10:55.556Z,3.90
2022-09-05T21:13:26.343Z,4.30
2022-09-05T21:15:56.873Z,4.17
2022-09-05T21:18:33.271Z,3.97
2022-09-05T21:21:27.765Z,4.40
2022-09-05T21:24:18.116Z,4.17
2022-09-05T21:26:47.624Z,4.17
2022-09-05T21:29:17.490Z,4.10
2022-09-05T21:31:54.348Z,4.43
2022-09-05T21:34:26.117Z,4.63
2022-09-05T21:36:57.585Z,4.70
2022-09-05T21:39:39.957Z,4.33
2022-09-05T21:42:42.834Z,4.37
2022-09-05T21:47:41.945Z,4.67
2022-09-05T21:47:53.312Z,4.23
2022-09-05T21:50:31.316Z,4.17
2022-09-05T21:54:47.393Z,4.53
2022-09-05T21:59:20.060Z,4.73
2022-09-05T21:59:25.915Z,5.10
2022-09-05T22:01:52.081Z,4.50
2022-09-05T22:04:18.129Z,4.80
2022-09-05T22:06:48.540Z,5.30
2022-09-05T22:09:19.567Z,5.07
2022-09-05T22:11:51.227Z,4.87
2022-09-05T22:14:19.598Z,4.90
2022-09-05T22:16:50.527Z,5.10
2022-09-05T22:19:26.113Z,5.30
2022-09-05T22:22:04.246Z,5.03
2022-09-05T22:24:34.086Z,5.70
2022-09-05T22:27:12.635Z,5.13
2022-09-05T22:29:40.981Z,5.07
2022-09-05T22:32:08.996Z,4.80
2022-09-05T22:34:38.181Z,5.50
2022-09-05T22:37:06.011Z,5.40
2022-09-05T22:39:37.916Z,5.43
2022-09-05T22:42:09.998Z,5.47
2022-09-05T22:44:39.677Z,5.53
2022-09-05T22:47:07.876Z,5.77
2022-09-05T22:49:36.402Z,5.53
2022-09-05T22:52:06.915Z,5.77
2022-09-05T22:54:34.855Z,5.83
2022-09-05T22:57:03.231Z,5.33
2022-09-05T22:59:31.174Z,5.93
2022-09-05T23:01:59.328Z,5.83
2022-09-05T23:04:27.527Z,5.67
2022-09-05T23:06:55.387Z,6.33
2022-09-05T23:09:24.518Z,6.00
2022-09-05T23:11:52.245Z,6.27
2022-09-05T23:14:20.083Z,5.90
2022-09-05T23:16:47.840Z,6.73
2022-09-05T23:19:15.562Z,5.87
2022-09-05T23:21:43.305Z,6.73
2022-09-05T23:24:11.109Z,6.53
2022-09-05T23:26:40.243Z,6.57
2022-09-05T23:29:08.011Z,6.60
2022-09-05T23:31:35.784Z,6.53
2022-09-05T23:34:03.592Z,7.67
2022-09-05T23:36:31.955Z,7.40
2022-09-05T23:38:59.700Z,7.17
2022-09-05T23:41:27.434Z,6.60
2022-09-05T23:43:56.632Z,6.97
2022-09-05T23:46:24.446Z,7.33
2022-09-05T23:48:52.228Z,6.77
2022-09-05T23:51:20.015Z,7.90
2022-09-05T23:53:47.771Z,7.63
2022-09-05T23:56:15.515Z,7.53
2022-09-05T23:58:43.221Z,7.37
